Time;durP1;ratioP1;P1;durP2;ratioP2;P2;SDS_P1;SDS_P2;PMS_P1;PMS_P2;Temp;Humidity;BMP_temperature;BMP_pressure;BME280_temperature;BME280_humidity;BME280_pressure;Samples;Min_cycle;Max_cycle;Signal;HPM_P1;HPM_P2
2022/09/17 00:00:11;;;;;;;12.95;3.22;;;;;;;8.75;100.00;101084.34;1992591;28;20035;-69
2022/09/17 00:01:23;;;;;;;12.05;2.65;;;;;;;8.75;100.00;101084.34;1993367;28;20104;-69
2022/09/17 00:02:21;;;;;;;12.45;2.78;;;;;;;8.75;100.00;101087.81;1993264;28;20031;-70
2022/09/17 00:03:19;;;;;;;14.40;3.42;;;;;;;8.76;100.00;101084.28;1993521;28;20036;-70
2022/09/17 00:04:16;;;;;;;13.00;2.90;;;;;;;8.78;100.00;101080.78;1994042;28;20028;-68
2022/09/17 00:05:14;;;;;;;11.82;3.00;;;;;;;8.81;100.00;101086.75;1994021;28;20038;-67
2022/09/17 00:06:12;;;;;;;15.45;3.13;;;;;;;8.81;100.00;101096.31;1993942;28;20484;-68
2022/09/17 00:07:09;;;;;;;9.32;2.90;;;;;;;8.81;100.00;101096.31;1993878;28;20071;-67
2022/09/17 00:08:13;;;;;;;15.55;3.00;;;;;;;8.80;100.00;101097.22;1994107;28;20027;-67
2022/09/17 00:09:11;;;;;;;13.48;3.42;;;;;;;8.80;100.00;101099.81;1991750;28;20041;-68
2022/09/17 00:10:08;;;;;;;15.05;3.30;;;;;;;8.78;100.00;101097.25;1993284;28;20035;-68
2022/09/17 00:11:20;;;;;;;17.00;3.47;;;;;;;8.79;100.00;101092.91;1993329;28;20036;-67
2022/09/17 00:12:17;;;;;;;13.40;2.67;;;;;;;8.82;100.00;101098.88;1993933;28;20040;-72
2022/09/17 00:13:14;;;;;;;12.82;3.05;;;;;;;8.84;100.00;101097.09;1993893;28;20032;-69
2022/09/17 00:14:16;;;;;;;17.33;3.20;;;;;;;8.86;100.00;101105.69;1994042;28;20031;-68
2022/09/17 00:15:14;;;;;;;14.27;3.33;;;;;;;8.87;100.00;101109.97;1993750;28;20024;-68
2022/09/17 00:16:11;;;;;;;8.25;2.45;;;;;;;8.90;100.00;101109.06;1993915;28;20062;-68
2022/09/17 00:17:09;;;;;;;9.73;2.75;;;;;;;8.87;100.00;101111.75;1993845;28;20521;-67
2022/09/17 00:18:06;;;;;;;11.32;2.65;;;;;;;8.86;100.00;101099.63;1993875;28;20024;-67
2022/09/17 00:19:08;;;;;;;12.05;3.03;;;;;;;8.87;100.00;101111.75;1993322;28;20130;-67
2022/09/17 00:20:09;;;;;;;9.63;2.67;;;;;;;8.86;100.00;101110.88;1993392;28;20411;-69
2022/09/17 00:21:15;;;;;;;9.95;2.70;;;;;;;8.95;100.00;101109.75;1993934;28;20372;-71
2022/09/17 00:22:13;;;;;;;10.73;2.75;;;;;;;8.95;100.00;101109.75;1993263;28;20020;-67
2022/09/17 00:23:12;;;;;;;15.48;2.85;;;;;;;9.02;100.00;101106.06;1993307;28;20029;-67
2022/09/17 00:24:12;;;;;;;13.07;2.73;;;;;;;9.05;100.00;101107.72;2000582;28;20019;-67
2022/09/17 00:25:10;;;;;;;17.35;2.90;;;;;;;9.04;100.00;101105.16;2001294;28;20274;-67
2022/09/17 00:26:07;;;;;;;9.75;2.50;;;;;;;9.05;100.00;101104.25;1994242;28;20029;-67
2022/09/17 00:27:04;;;;;;;12.60;2.78;;;;;;;9.04;100.00;101107.75;1993887;28;20031;-70
2022/09/17 00:28:02;;;;;;;10.13;2.55;;;;;;;8.96;100.00;101111.44;1993794;28;20024;-68
2022/09/17 00:29:00;;;;;;;10.18;2.28;;;;;;;8.98;100.00;101114.00;1993900;28;20598;-71
2022/09/17 00:29:57;;;;;;;10.10;2.85;;;;;;;9.04;100.00;101112.97;1993586;28;20121;-69
2022/09/17 00:30:55;;;;;;;15.43;2.60;;;;;;;9.00;100.00;101102.63;1993729;28;20656;-69
2022/09/17 00:31:52;;;;;;;10.18;2.47;;;;;;;9.01;100.00;101104.34;1993050;28;20572;-68
2022/09/17 00:32:50;;;;;;;14.45;2.67;;;;;;;9.01;100.00;101106.94;1993205;28;20078;-67
2022/09/17 00:33:48;;;;;;;14.35;2.65;;;;;;;9.00;100.00;101105.25;1993740;28;20030;-67
2022/09/17 00:34:47;;;;;;;9.63;2.55;;;;;;;9.03;100.00;101099.09;1993795;28;20047;-67
2022/09/17 00:35:58;;;;;;;12.68;2.90;;;;;;;8.96;100.00;101103.63;1993785;28;20027;-68
2022/09/17 00:36:56;;;;;;;17.80;3.65;;;;;;;8.93;100.00;101103.72;1993856;28;20086;-66
2022/09/17 00:37:53;;;;;;;10.75;2.67;;;;;;;8.94;100.00;101102.84;1993691;28;20025;-68
2022/09/17 00:38:54;;;;;;;9.85;2.78;;;;;;;8.95;100.00;101103.69;1990929;28;20470;-67
2022/09/17 00:39:51;;;;;;;13.10;2.78;;;;;;;9.00;100.00;101107.84;1993175;28;20036;-67
2022/09/17 00:40:48;;;;;;;12.38;2.97;;;;;;;8.95;100.00;101106.28;1993728;28;20472;-67
2022/09/17 00:41:46;;;;;;;11.55;2.70;;;;;;;8.99;100.00;101115.69;1993760;28;20031;-66
2022/09/17 00:42:44;;;;;;;12.32;2.88;;;;;;;9.03;100.00;101112.09;1993041;28;20020;-67
2022/09/17 00:43:49;;;;;;;10.77;2.60;;;;;;;8.99;100.00;101111.34;1993229;28;20020;-68
2022/09/17 00:44:52;;;;;;;11.10;2.53;;;;;;;8.99;100.00;101113.97;1993536;28;20020;-65
2022/09/17 00:45:52;;;;;;;7.93;2.33;;;;;;;9.04;100.00;101107.75;1993745;28;20085;-68
2022/09/17 00:46:50;;;;;;;13.68;2.95;;;;;;;9.06;100.00;101117.22;1992990;28;20028;-67
2022/09/17 00:47:59;;;;;;;12.57;2.55;;;;;;;9.05;100.00;101114.66;1985174;28;20032;-68
2022/09/17 00:49:26;;;;;;;12.32;2.60;;;;;;;9.05;100.00;101119.88;1993075;28;20028;-64
2022/09/17 00:50:38;;;;;;;11.80;2.50;;;;;;;9.07;100.00;101118.06;1993071;28;20127;-66
2022/09/17 00:51:44;;;;;;;17.48;2.50;;;;;;;9.14;100.00;101119.59;1993612;28;20038;-66
2022/09/17 00:52:48;;;;;;;15.27;2.50;;;;;;;9.17;100.00;101114.25;1993638;28;20031;-67
2022/09/17 00:53:46;;;;;;;14.20;2.58;;;;;;;9.13;100.00;101115.25;1993020;28;20051;-67
2022/09/17 00:54:55;;;;;;;12.57;2.63;;;;;;;9.13;100.00;101108.31;1993051;28;20031;-68
2022/09/17 00:56:02;;;;;;;11.20;2.50;;;;;;;9.14;100.00;101110.00;1992977;28;20036;-68
2022/09/17 00:56:59;;;;;;;15.30;2.55;;;;;;;9.15;100.00;101116.06;1993098;28;20032;-67
2022/09/17 00:58:01;;;;;;;9.85;2.25;;;;;;;9.17;100.00;101113.44;1993670;28;20024;-66
2022/09/17 00:59:01;;;;;;;10.18;2.50;;;;;;;9.09;100.00;101118.88;1993478;28;20028;-66
2022/09/17 00:59:59;;;;;;;12.55;2.30;;;;;;;9.12;100.00;101122.25;1993469;28;20371;-68
2022/09/17 01:00:57;;;;;;;16.50;2.70;;;;;;;9.17;100.00;101121.25;1993438;28;20039;-67
2022/09/17 01:01:54;;;;;;;16.10;3.22;;;;;;;9.09;100.00;101117.13;1993484;28;20043;-66
2022/09/17 01:02:53;;;;;;;12.95;2.60;;;;;;;9.06;100.00;101124.19;1993399;28;20085;-66
2022/09/17 01:03:51;;;;;;;10.10;2.72;;;;;;;9.09;100.00;101116.25;1993453;28;20379;-66
2022/09/17 01:04:48;;;;;;;15.70;3.20;;;;;;;9.16;100.00;101119.53;1993561;28;20078;-65
2022/09/17 01:06:31;;;;;;;14.60;2.80;;;;;;;9.11;100.00;101119.69;1993618;28;20455;-67
2022/09/17 01:07:57;;;;;;;13.43;3.05;;;;;;;9.07;100.00;101118.91;1992745;28;20116;-67
2022/09/17 01:09:26;;;;;;;13.48;2.72;;;;;;;9.07;100.00;101116.31;1985995;28;20032;-67
2022/09/17 01:10:44;;;;;;;14.30;2.33;;;;;;;9.12;100.00;101121.38;1993326;28;20039;-67
2022/09/17 01:12:12;;;;;;;10.27;2.60;;;;;;;9.12;100.00;101116.16;1993444;28;20038;-65
2022/09/17 01:13:37;;;;;;;12.95;2.20;;;;;;;9.15;100.00;101118.69;1992934;28;20551;-65
2022/09/17 01:15:15;;;;;;;10.23;2.53;;;;;;;9.20;100.00;101110.72;1993018;28;20031;-66
2022/09/17 01:16:58;;;;;;;14.57;2.63;;;;;;;9.22;100.00;101114.13;1993484;28;20033;-67
2022/09/17 01:18:21;;;;;;;8.15;2.22;;;;;;;9.24;100.00;101122.75;1992978;28;20028;-67
2022/09/17 01:19:39;;;;;;;10.80;2.60;;;;;;;9.24;100.00;101125.34;1992844;28;20039;-67
2022/09/17 01:21:26;;;;;;;9.95;2.13;;;;;;;9.22;100.00;101122.78;1992793;28;20382;-71
2022/09/17 01:22:57;;;;;;;7.93;2.08;;;;;;;9.20;100.00;101119.38;1993033;28;20028;-67
2022/09/17 01:24:21;;;;;;;12.48;2.78;;;;;;;9.22;100.00;101116.72;1993041;28;20024;-70
2022/09/17 01:25:28;;;;;;;11.45;2.78;;;;;;;9.21;100.00;101122.84;1993151;28;20475;-68
2022/09/17 01:26:53;;;;;;;10.68;2.38;;;;;;;9.19;100.00;101122.88;1993014;28;20043;-69
2022/09/17 01:28:02;;;;;;;10.98;3.22;;;;;;;9.20;100.00;101124.59;1993114;28;20036;-68
2022/09/17 01:29:38;;;;;;;11.57;2.53;;;;;;;9.19;100.00;101125.50;1992469;28;20034;-67
2022/09/17 01:30:50;;;;;;;14.20;2.92;;;;;;;9.21;100.00;101128.88;1980005;28;20083;-66
2022/09/17 01:32:08;;;;;;;13.82;2.60;;;;;;;9.19;100.00;101135.91;1992949;28;20047;-67
2022/09/17 01:33:40;;;;;;;14.07;2.63;;;;;;;9.18;100.00;101135.97;1993140;28;20119;-67
2022/09/17 01:35:05;;;;;;;15.38;2.60;;;;;;;9.18;100.00;101131.59;1993078;28;20044;-68
2022/09/17 01:36:33;;;;;;;15.65;2.78;;;;;;;9.21;100.00;101134.09;1993106;28;20028;-67
2022/09/17 01:37:41;;;;;;;12.70;2.88;;;;;;;9.25;100.00;101135.72;1993153;28;20099;-67
2022/09/17 01:39:29;;;;;;;14.27;2.85;;;;;;;9.25;100.00;101140.94;1990607;28;20035;-67
2022/09/17 01:41:00;;;;;;;12.45;2.25;;;;;;;9.28;100.00;101133.00;1993055;28;20071;-67
2022/09/17 01:42:22;;;;;;;15.52;2.40;;;;;;;9.27;100.00;101136.50;1993071;28;20035;-67
2022/09/17 01:43:40;;;;;;;13.55;2.80;;;;;;;9.29;100.00;101136.47;1993058;28;20035;-67
2022/09/17 01:45:05;;;;;;;15.18;2.92;;;;;;;9.31;100.00;101136.41;1992920;28;20024;-67
2022/09/17 01:46:22;;;;;;;12.90;2.55;;;;;;;9.35;100.00;101132.81;1993217;28;20095;-66
2022/09/17 01:47:32;;;;;;;12.93;2.55;;;;;;;9.34;100.00;101141.53;1992935;28;20038;-68
2022/09/17 01:48:36;;;;;;;12.52;2.25;;;;;;;9.28;100.00;101138.22;1993082;28;20538;-66
2022/09/17 01:49:38;;;;;;;12.38;2.38;;;;;;;9.35;100.00;101138.03;1993008;28;20555;-68
2022/09/17 01:50:51;;;;;;;10.75;2.42;;;;;;;9.34;100.00;101142.38;1993003;28;20080;-67
2022/09/17 01:51:50;;;;;;;8.95;2.72;;;;;;;9.33;100.00;101142.41;1992997;28;20036;-67
2022/09/17 01:52:53;;;;;;;10.50;2.20;;;;;;;9.27;100.00;101146.06;1993073;28;20029;-67
2022/09/17 01:54:19;;;;;;;11.60;2.60;;;;;;;9.24;100.00;101140.97;1993037;28;20038;-72
2022/09/17 01:55:23;;;;;;;14.52;2.47;;;;;;;9.27;100.00;101141.72;1992921;28;20040;-68
2022/09/17 01:56:32;;;;;;;15.88;2.97;;;;;;;9.23;100.00;101144.47;1993111;28;20047;-68
2022/09/17 01:57:41;;;;;;;16.02;2.70;;;;;;;9.22;100.00;101143.63;1993018;28;20032;-69
2022/09/17 01:58:55;;;;;;;16.17;3.17;;;;;;;9.19;100.00;101148.94;1993078;28;20021;-67
2022/09/17 02:00:02;;;;;;;15.50;2.70;;;;;;;9.17;100.00;101145.50;1992945;28;20039;-67
2022/09/17 02:01:05;;;;;;;17.55;2.88;;;;;;;9.17;100.00;101148.13;1992873;28;20115;-67
2022/09/17 02:02:24;;;;;;;12.55;2.50;;;;;;;9.14;100.00;101148.22;1992997;28;20044;-69
2022/09/17 02:03:29;;;;;;;13.18;3.05;;;;;;;9.07;100.00;101146.72;1992268;28;20101;-68
2022/09/17 02:04:37;;;;;;;16.60;2.78;;;;;;;9.08;100.00;101144.06;1984647;28;20063;-68
2022/09/17 02:05:55;;;;;;;15.65;2.50;;;;;;;9.08;100.00;101143.22;1992411;28;20051;-68
2022/09/17 02:07:03;;;;;;;13.77;3.05;;;;;;;9.05;100.00;101145.91;1993082;28;20046;-65
2022/09/17 02:08:15;;;;;;;15.55;3.22;;;;;;;9.02;100.00;101142.50;1992965;28;20044;-67
2022/09/17 02:09:21;;;;;;;13.93;2.55;;;;;;;9.00;100.00;101148.66;1990752;28;20043;-68
2022/09/17 02:10:31;;;;;;;11.70;2.35;;;;;;;8.99;100.00;101145.19;1992910;28;20052;-68
2022/09/17 02:11:35;;;;;;;13.35;2.58;;;;;;;8.98;100.00;101138.31;1993081;28;20120;-68
2022/09/17 02:12:43;;;;;;;11.40;2.50;;;;;;;9.00;100.00;101139.09;1993007;28;20349;-67
2022/09/17 02:13:54;;;;;;;11.77;2.53;;;;;;;8.99;100.00;101142.59;1993015;28;20028;-69
2022/09/17 02:14:59;;;;;;;16.25;3.17;;;;;;;8.97;100.00;101144.38;1992876;28;20107;-69
2022/09/17 02:16:07;;;;;;;7.53;2.22;;;;;;;8.94;100.00;101144.50;1992950;28;20484;-68
2022/09/17 02:17:46;;;;;;;11.07;2.28;;;;;;;8.92;100.00;101146.28;1992932;28;20039;-68
2022/09/17 02:19:22;;;;;;;11.48;2.47;;;;;;;8.93;100.00;101137.56;1991413;28;20077;-69
2022/09/17 02:20:33;;;;;;;10.75;2.35;;;;;;;8.94;100.00;101146.25;1992963;28;20033;-69
2022/09/17 02:21:45;;;;;;;13.13;2.55;;;;;;;8.95;100.00;101145.34;1993026;28;20418;-67
2022/09/17 02:22:51;;;;;;;10.85;2.38;;;;;;;8.93;100.00;101142.78;1992942;28;20443;-68
2022/09/17 02:24:10;;;;;;;11.65;2.63;;;;;;;8.92;100.00;101146.28;1992972;28;20031;-68
2022/09/17 02:25:23;;;;;;;11.80;2.67;;;;;;;8.95;100.00;101138.38;1992940;28;20423;-70
2022/09/17 02:26:22;;;;;;;12.30;2.72;;;;;;;8.97;100.00;101146.97;1992905;28;20430;-68
2022/09/17 02:27:46;;;;;;;16.65;3.05;;;;;;;8.93;100.00;101145.38;1992907;28;20032;-68
2022/09/17 02:29:01;;;;;;;13.20;2.55;;;;;;;8.96;100.00;101147.88;1992976;28;20047;-68
2022/09/17 02:29:58;;;;;;;10.70;2.50;;;;;;;8.95;100.00;101148.78;1993688;28;20043;-67
2022/09/17 02:30:56;;;;;;;10.95;2.70;;;;;;;8.96;100.00;101147.06;1994172;28;20071;-68
2022/09/17 02:31:53;;;;;;;19.08;2.60;;;;;;;8.96;100.00;101147.88;1994297;28;20476;-68
2022/09/17 02:32:52;;;;;;;12.73;2.47;;;;;;;8.98;100.00;101145.25;1993683;28;20115;-68
2022/09/17 02:33:59;;;;;;;9.02;2.20;;;;;;;9.00;100.00;101152.09;1993885;28;20059;-68
2022/09/17 02:34:56;;;;;;;13.75;2.58;;;;;;;8.99;100.00;101152.16;1994359;28;20032;-70
2022/09/17 02:35:53;;;;;;;12.32;2.97;;;;;;;8.97;100.00;101160.00;1994286;28;20461;-68
2022/09/17 02:36:51;;;;;;;13.77;2.20;;;;;;;9.01;100.00;101160.78;1994371;28;20476;-68
2022/09/17 02:37:49;;;;;;;13.68;3.08;;;;;;;8.98;100.00;101156.53;1994404;28;20025;-70
2022/09/17 02:38:46;;;;;;;9.43;2.45;;;;;;;9.00;100.00;101159.91;1991921;28;20081;-68
2022/09/17 02:39:43;;;;;;;14.80;2.55;;;;;;;8.99;100.00;101163.41;1994313;28;20028;-68
2022/09/17 02:40:53;;;;;;;15.45;2.30;;;;;;;8.99;100.00;101157.34;1994372;28;20493;-68
2022/09/17 02:42:29;;;;;;;13.75;2.38;;;;;;;8.94;100.00;101154.91;1994360;28;20028;-70
2022/09/17 02:43:47;;;;;;;12.02;2.63;;;;;;;8.97;100.00;101159.16;1994224;28;20038;-69
2022/09/17 02:45:30;;;;;;;12.88;2.17;;;;;;;8.93;100.00;101162.75;1994255;28;20032;-70
2022/09/17 02:47:08;;;;;;;10.35;2.55;;;;;;;8.88;100.00;101166.34;1977720;28;20064;-67
2022/09/17 02:48:55;;;;;;;10.05;2.20;;;;;;;8.89;100.00;101168.06;1993643;28;20101;-68
2022/09/17 02:50:22;;;;;;;10.98;2.30;;;;;;;8.90;100.00;101163.72;1994088;28;20034;-68
2022/09/17 02:51:32;;;;;;;11.23;2.45;;;;;;;8.90;100.00;101163.72;1994259;28;20082;-68
2022/09/17 02:52:45;;;;;;;10.77;2.45;;;;;;;8.87;100.00;101159.44;1994297;28;20020;-71
2022/09/17 02:54:22;;;;;;;11.43;2.45;;;;;;;8.88;100.00;101155.94;1994266;28;20027;-69
2022/09/17 02:55:50;;;;;;;12.10;2.58;;;;;;;8.85;100.00;101160.38;1994263;28;20029;-68
2022/09/17 02:57:19;;;;;;;17.63;2.55;;;;;;;8.82;100.00;101166.53;1994271;28;20386;-68
2022/09/17 02:58:16;;;;;;;8.30;2.17;;;;;;;8.79;100.00;101161.41;1994225;28;20031;-70
2022/09/17 02:59:40;;;;;;;14.48;2.28;;;;;;;8.79;100.00;101166.63;1994290;28;20032;-68
2022/09/17 03:00:39;;;;;;;10.55;2.33;;;;;;;8.78;100.00;101166.66;1994187;28;20494;-68
2022/09/17 03:02:06;;;;;;;9.88;2.25;;;;;;;8.75;100.00;101165.88;1994248;28;20499;-70
2022/09/17 03:03:12;;;;;;;14.10;2.20;;;;;;;8.72;100.00;101165.09;1994162;28;20040;-69
2022/09/17 03:04:15;;;;;;;12.20;2.53;;;;;;;8.71;100.00;101166.84;1994163;28;20050;-68
2022/09/17 03:05:20;;;;;;;13.57;2.20;;;;;;;8.67;100.00;101157.44;1994214;28;20025;-69
2022/09/17 03:06:18;;;;;;;10.35;2.45;;;;;;;8.67;100.00;101162.63;1994189;28;20107;-69
2022/09/17 03:07:19;;;;;;;17.35;2.50;;;;;;;8.68;100.00;101164.34;1994204;28;20047;-68
2022/09/17 03:08:20;;;;;;;16.40;2.92;;;;;;;8.63;100.00;101161.03;1993447;28;20050;-69
2022/09/17 03:09:18;;;;;;;13.82;2.50;;;;;;;8.61;100.00;101158.47;1991716;28;20433;-68
2022/09/17 03:10:16;;;;;;;13.73;2.63;;;;;;;8.61;100.00;101157.59;1994106;28;20028;-68
2022/09/17 03:11:14;;;;;;;12.35;2.70;;;;;;;8.60;100.00;101161.97;1994294;28;20492;-68
2022/09/17 03:12:12;;;;;;;14.65;2.50;;;;;;;8.57;100.00;101162.06;1994062;28;20028;-70
2022/09/17 03:13:09;;;;;;;13.43;2.90;;;;;;;8.54;100.00;101159.53;1994141;28;20052;-70
2022/09/17 03:14:06;;;;;;;11.55;2.55;;;;;;;8.53;100.00;101160.44;1994181;28;20388;-68
2022/09/17 03:15:05;;;;;;;15.32;2.58;;;;;;;8.50;100.00;101157.88;1994083;28;20166;-68
2022/09/17 03:16:04;;;;;;;13.10;2.58;;;;;;;8.50;100.00;101157.88;1994050;28;20032;-68
2022/09/17 03:17:02;;;;;;;16.55;2.97;;;;;;;8.47;100.00;101156.22;1993967;28;20109;-68
2022/09/17 03:18:00;;;;;;;15.18;2.60;;;;;;;8.47;100.00;101161.44;1993478;28;20025;-68
2022/09/17 03:18:58;;;;;;;12.20;2.45;;;;;;;8.49;100.00;101154.44;1993447;28;20503;-71
2022/09/17 03:19:55;;;;;;;13.20;2.60;;;;;;;8.48;100.00;101157.94;1994036;28;20039;-68
2022/09/17 03:20:53;;;;;;;12.05;2.50;;;;;;;8.48;100.00;101152.72;1994020;28;20039;-69
2022/09/17 03:21:50;;;;;;;11.05;2.60;;;;;;;8.49;100.00;101157.03;1993400;28;20450;-70
2022/09/17 03:22:48;;;;;;;14.27;2.33;;;;;;;8.49;100.00;101157.03;1993464;28;20423;-68
2022/09/17 03:23:46;;;;;;;14.07;2.45;;;;;;;8.49;100.00;101151.81;1993959;28;20468;-69
2022/09/17 03:24:43;;;;;;;13.38;2.70;;;;;;;8.49;100.00;101154.44;1993952;28;20391;-68
2022/09/17 03:25:40;;;;;;;12.63;2.40;;;;;;;8.50;100.00;101161.34;1994038;28;20124;-69
2022/09/17 03:26:38;;;;;;;10.32;2.28;;;;;;;8.50;100.00;101150.09;1993991;28;20391;-68
2022/09/17 03:27:35;;;;;;;11.63;2.42;;;;;;;8.52;100.00;101153.47;1994038;28;20482;-69
2022/09/17 03:28:32;;;;;;;10.68;2.85;;;;;;;8.53;100.00;101154.34;1994058;28;20028;-67
2022/09/17 03:29:30;;;;;;;8.02;1.85;;;;;;;8.50;100.00;101153.56;1993890;28;20031;-68
2022/09/17 03:30:27;;;;;;;9.88;2.00;;;;;;;8.50;100.00;101150.94;1994083;28;20040;-69
2022/09/17 03:31:25;;;;;;;13.45;2.13;;;;;;;8.54;100.00;101146.53;1993686;28;20101;-69
2022/09/17 03:32:22;;;;;;;13.95;2.40;;;;;;;8.53;100.00;101149.13;1993300;28;20088;-68
2022/09/17 03:33:19;;;;;;;14.48;2.88;;;;;;;8.54;100.00;101150.88;1993340;28;20031;-68
2022/09/17 03:34:17;;;;;;;13.18;2.47;;;;;;;8.56;100.00;101154.28;1993931;28;20479;-68
2022/09/17 03:35:15;;;;;;;15.07;2.55;;;;;;;8.55;100.00;101152.59;1993925;28;20507;-68
2022/09/17 03:36:12;;;;;;;10.65;2.22;;;;;;;8.54;100.00;101150.88;1994018;28;20041;-68
2022/09/17 03:37:09;;;;;;;14.82;2.72;;;;;;;8.54;100.00;101150.88;1993929;28;20123;-68
2022/09/17 03:38:07;;;;;;;11.90;2.58;;;;;;;8.52;100.00;101145.69;1993939;28;20103;-69
2022/09/17 03:39:04;;;;;;;14.52;2.58;;;;;;;8.57;100.00;101156.00;1991628;28;20419;-68
2022/09/17 03:40:02;;;;;;;14.45;2.58;;;;;;;8.54;100.00;101153.47;1993845;28;20035;-68
2022/09/17 03:41:06;;;;;;;11.82;2.20;;;;;;;8.52;100.00;101157.84;1992827;28;20024;-68
2022/09/17 03:42:04;;;;;;;16.15;2.45;;;;;;;8.54;100.00;101156.06;1993311;28;20028;-67
2022/09/17 03:43:02;;;;;;;15.55;2.53;;;;;;;8.54;100.00;101156.94;1993948;28;20037;-68
2022/09/17 03:43:59;;;;;;;9.35;2.05;;;;;;;8.53;100.00;101151.75;1993836;28;20024;-68
2022/09/17 03:44:57;;;;;;;12.57;2.35;;;;;;;8.50;100.00;101152.69;1993970;28;20059;-68
2022/09/17 03:45:54;;;;;;;10.02;2.28;;;;;;;8.46;100.00;101159.72;1993761;28;20419;-68
2022/09/17 03:46:52;;;;;;;19.58;2.47;;;;;;;8.46;100.00;101154.50;1993895;28;20392;-68
2022/09/17 03:47:49;;;;;;;12.02;2.72;;;;;;;8.44;100.00;101161.50;1993739;28;20037;-68
2022/09/17 03:48:46;;;;;;;11.57;2.13;;;;;;;8.42;100.00;101160.69;1993228;28;20110;-68
2022/09/17 03:49:44;;;;;;;12.45;2.15;;;;;;;8.40;100.00;101157.31;1993291;28;20021;-68
2022/09/17 03:50:42;;;;;;;13.80;2.45;;;;;;;8.37;100.00;101159.97;1993813;28;20439;-68
2022/09/17 03:51:39;;;;;;;15.02;2.28;;;;;;;8.32;100.00;101154.91;1993760;28;20086;-71
2022/09/17 03:52:37;;;;;;;9.63;1.98;;;;;;;8.31;100.00;101153.19;1993728;28;20029;-68
2022/09/17 03:53:34;;;;;;;14.27;2.40;;;;;;;8.27;100.00;101159.38;1993894;28;20471;-67
2022/09/17 03:54:31;;;;;;;12.40;2.67;;;;;;;8.28;100.00;101155.88;1993797;28;20088;-70
2022/09/17 03:55:29;;;;;;;9.90;2.47;;;;;;;8.27;100.00;101161.13;1993826;28;20029;-68
2022/09/17 03:56:26;;;;;;;13.60;2.47;;;;;;;8.27;100.00;101153.31;1993764;28;20031;-69
2022/09/17 03:57:23;;;;;;;13.55;2.47;;;;;;;8.23;100.00;101148.22;1993884;28;20036;-67
2022/09/17 03:58:21;;;;;;;8.88;2.00;;;;;;;8.25;100.00;101161.19;1993738;28;20111;-68
2022/09/17 03:59:18;;;;;;;16.00;2.75;;;;;;;8.22;100.00;101156.91;1993811;28;20028;-69
2022/09/17 04:00:16;;;;;;;16.90;2.92;;;;;;;8.20;100.00;101158.72;1993721;28;20052;-68
2022/09/17 04:01:13;;;;;;;19.75;2.63;;;;;;;8.20;100.00;101153.50;1993784;28;20514;-68
2022/09/17 04:02:11;;;;;;;10.77;2.40;;;;;;;8.18;100.00;101160.47;1993688;28;20024;-69
2022/09/17 04:03:08;;;;;;;12.35;2.22;;;;;;;8.20;100.00;101163.91;1993670;28;20111;-68
2022/09/17 04:04:06;;;;;;;14.20;2.22;;;;;;;8.20;100.00;101163.91;1993681;28;20482;-68
2022/09/17 04:05:04;;;;;;;14.88;2.47;;;;;;;8.20;100.00;101163.91;1993889;28;20035;-68
2022/09/17 04:06:02;;;;;;;12.60;2.65;;;;;;;8.20;100.00;101163.91;1993732;28;20032;-68
2022/09/17 04:06:59;;;;;;;10.55;2.10;;;;;;;8.18;100.00;101165.69;1993655;28;20029;-68
2022/09/17 04:07:57;;;;;;;21.15;2.60;;;;;;;8.17;100.00;101169.19;1993691;28;20055;-67
2022/09/17 04:08:55;;;;;;;11.25;2.28;;;;;;;8.13;100.00;101167.56;1990671;28;20477;-68
2022/09/17 04:09:53;;;;;;;10.10;2.33;;;;;;;8.11;100.00;101169.38;1993195;28;20436;-68
2022/09/17 04:10:50;;;;;;;11.27;2.53;;;;;;;8.06;100.00;101166.00;1993568;28;20032;-68
2022/09/17 04:11:48;;;;;;;10.40;2.58;;;;;;;8.07;100.00;101167.72;1993630;28;20028;-68
2022/09/17 04:12:45;;;;;;;16.30;2.53;;;;;;;8.07;100.00;101165.13;1993639;28;20047;-68
2022/09/17 04:13:43;;;;;;;15.18;2.60;;;;;;;8.12;100.00;101166.69;1993724;28;20035;-68
2022/09/17 04:14:40;;;;;;;13.13;2.38;;;;;;;8.11;100.00;101165.00;1993541;28;20029;-69
2022/09/17 04:15:38;;;;;;;11.32;2.42;;;;;;;8.10;100.00;101167.63;1992898;28;20033;-68
2022/09/17 04:16:35;;;;;;;13.63;2.80;;;;;;;8.10;100.00;101167.63;1992923;28;20511;-69
2022/09/17 04:17:33;;;;;;;8.60;2.05;;;;;;;8.08;100.00;101174.66;2000171;28;20037;-68
2022/09/17 04:18:31;;;;;;;13.25;2.42;;;;;;;8.09;100.00;101181.53;1994471;28;20446;-70
2022/09/17 04:19:28;;;;;;;15.88;2.90;;;;;;;8.05;100.00;101169.53;1993601;28;20538;-68
2022/09/17 04:20:27;;;;;;;11.63;2.42;;;;;;;8.05;100.00;101177.31;1992978;28;20028;-69
2022/09/17 04:21:24;;;;;;;16.23;2.58;;;;;;;8.04;100.00;101180.81;1992981;28;20029;-68
2022/09/17 04:22:22;;;;;;;11.88;2.38;;;;;;;8.03;100.00;101172.16;1993570;28;20039;-69
2022/09/17 04:23:19;;;;;;;17.70;2.25;;;;;;;8.05;100.00;101174.72;1993692;28;20017;-68
2022/09/17 04:24:17;;;;;;;15.65;2.60;;;;;;;8.05;100.00;101177.31;1993614;28;20039;-68
2022/09/17 04:25:15;;;;;;;12.02;2.00;;;;;;;8.03;100.00;101177.34;1993510;28;20489;-69
2022/09/17 04:26:12;;;;;;;12.18;2.63;;;;;;;8.05;100.00;101170.38;1993602;28;20040;-68
2022/09/17 04:27:09;;;;;;;23.42;2.92;;;;;;;8.08;100.00;101182.44;1993551;28;20032;-68
2022/09/17 04:28:07;;;;;;;9.93;2.28;;;;;;;8.06;100.00;101181.63;1993436;28;20107;-69
2022/09/17 04:29:04;;;;;;;10.27;2.10;;;;;;;8.06;100.00;101171.22;1992991;28;20506;-67
2022/09/17 04:30:03;;;;;;;12.82;2.55;;;;;;;8.11;100.00;101175.41;1992840;28;20039;-69
2022/09/17 04:31:00;;;;;;;13.27;2.45;;;;;;;8.09;100.00;101173.75;1993361;28;20049;-69
2022/09/17 04:31:57;;;;;;;14.52;2.72;;;;;;;8.08;100.00;101178.06;1992675;28;20025;-68
2022/09/17 04:32:55;;;;;;;14.98;2.70;;;;;;;8.09;100.00;101173.75;1985218;28;20043;-68
2022/09/17 04:33:52;;;;;;;12.25;2.30;;;;;;;8.10;100.00;101172.84;1992019;28;20024;-69
2022/09/17 04:34:50;;;;;;;11.32;2.28;;;;;;;8.10;100.00;101170.25;1993463;28;20391;-69
2022/09/17 04:35:47;;;;;;;9.35;1.95;;;;;;;8.09;100.00;101179.81;1993457;28;20463;-69
2022/09/17 04:36:44;;;;;;;11.23;2.47;;;;;;;8.09;100.00;101177.19;1993522;28;20036;-68
2022/09/17 04:37:42;;;;;;;11.48;2.40;;;;;;;8.10;100.00;101178.03;1993386;28;20039;-69
2022/09/17 04:38:39;;;;;;;12.20;2.60;;;;;;;8.10;100.00;101178.91;1991144;28;20107;-68
2022/09/17 04:39:37;;;;;;;14.07;2.70;;;;;;;8.13;100.00;101172.75;1993425;28;20399;-68
2022/09/17 04:40:34;;;;;;;11.27;2.17;;;;;;;8.14;100.00;101176.22;1993348;28;20016;-68
2022/09/17 04:41:32;;;;;;;10.38;2.30;;;;;;;8.14;100.00;101174.47;1993438;28;20104;-68
2022/09/17 04:42:29;;;;;;;10.68;2.38;;;;;;;8.15;100.00;101180.53;1993397;28;20095;-68
2022/09/17 04:43:26;;;;;;;9.95;2.17;;;;;;;8.14;100.00;101179.66;1993405;28;20067;-69
2022/09/17 04:44:24;;;;;;;10.05;2.33;;;;;;;8.18;100.00;101176.09;1993416;28;20028;-67
2022/09/17 04:45:22;;;;;;;12.98;2.28;;;;;;;8.21;100.00;101189.00;1993465;28;20384;-68
2022/09/17 04:46:20;;;;;;;6.88;1.90;;;;;;;8.22;100.00;101188.09;1993355;28;20032;-70
2022/09/17 04:47:17;;;;;;;7.30;2.00;;;;;;;8.28;100.00;101186.25;1993338;28;20377;-69
2022/09/17 04:48:15;;;;;;;14.02;2.30;;;;;;;8.29;100.00;101187.94;1993354;28;20025;-70
2022/09/17 04:49:12;;;;;;;9.60;2.40;;;;;;;8.30;100.00;101190.50;1993432;28;20070;-71
2022/09/17 04:50:10;;;;;;;8.82;2.00;;;;;;;8.31;100.00;101188.78;1992703;28;20062;-68
2022/09/17 04:51:07;;;;;;;14.18;1.83;;;;;;;8.32;100.00;101180.06;1992794;28;20059;-72
2022/09/17 04:52:05;;;;;;;9.70;2.13;;;;;;;8.36;100.00;101179.91;1992876;28;20058;-70
2022/09/17 04:53:02;;;;;;;9.90;2.10;;;;;;;8.35;100.00;101186.03;1992846;28;20504;-69
2022/09/17 04:54:00;;;;;;;15.85;2.63;;;;;;;8.36;100.00;101186.88;1993348;28;20486;-70
2022/09/17 04:54:57;;;;;;;10.27;2.25;;;;;;;8.37;100.00;101180.78;1993304;28;20024;-68
2022/09/17 04:55:54;;;;;;;10.63;2.30;;;;;;;8.33;100.00;101189.56;1992732;28;20518;-71
2022/09/17 04:56:52;;;;;;;14.10;2.28;;;;;;;8.37;100.00;101186.00;1992767;28;20040;-68
2022/09/17 04:57:52;;;;;;;12.32;2.55;;;;;;;8.39;100.00;101181.59;1993287;28;20039;-68